sensor_id;sensor_type;location;lat;lon;timestamp;temperature;humidity
947;DHT22;460;48.734;9.152;2023-05-10T00:01:15;13.90;99.90
947;DHT22;460;48.734;9.152;2023-05-10T00:03:42;13.90;99.90
947;DHT22;460;48.734;9.152;2023-05-10T00:06:09;13.90;99.90
947;DHT22;460;48.734;9.152;2023-05-10T00:08:35;13.70;99.90
947;DHT22;460;48.734;9.152;2023-05-10T00:11:02;13.80;99.90
947;DHT22;460;48.734;9.152;2023-05-10T00:13:29;13.70;99.90
947;DHT22;460;48.734;9.152;2023-05-10T00:15:57;13.60;99.90
947;DHT22;460;48.734;9.152;2023-05-10T00:18:24;13.40;99.90
947;DHT22;460;48.734;9.152;2023-05-10T00:20:51;13.40;99.90
947;DHT22;460;48.734;9.152;2023-05-10T00:23:18;13.30;99.90
947;DHT22;460;48.734;9.152;2023-05-10T00:25:44;13.20;99.90
947;DHT22;460;48.734;9.152;2023-05-10T00:28:11;13.30;99.90
947;DHT22;460;48.734;9.152;2023-05-10T00:30:38;13.20;99.90
947;DHT22;460;48.734;9.152;2023-05-10T00:33:06;13.20;99.90
947;DHT22;460;48.734;9.152;2023-05-10T00:35:33;13.30;99.90
947;DHT22;460;48.734;9.152;2023-05-10T00:38:01;13.10;99.90
947;DHT22;460;48.734;9.152;2023-05-10T00:40:28;13.10;99.90
947;DHT22;460;48.734;9.152;2023-05-10T00:42:56;13.20;99.90
947;DHT22;460;48.734;9.152;2023-05-10T00:45:23;13.00;99.90
947;DHT22;460;48.734;9.152;2023-05-10T00:47:50;12.90;99.90
947;DHT22;460;48.734;9.152;2023-05-10T00:50:22;13.00;99.90
947;DHT22;460;48.734;9.152;2023-05-10T00:52:49;12.90;99.90
947;DHT22;460;48.734;9.152;2023-05-10T00:55:16;12.80;99.90
947;DHT22;460;48.734;9.152;2023-05-10T00:57:43;12.70;99.90
947;DHT22;460;48.734;9.152;2023-05-10T01:00:12;12.70;99.90
947;DHT22;460;48.734;9.152;2023-05-10T01:02:43;12.70;99.90
947;DHT22;460;48.734;9.152;2023-05-10T01:05:10;12.70;99.90
947;DHT22;460;48.734;9.152;2023-05-10T01:07:38;12.70;99.90
947;DHT22;460;48.734;9.152;2023-05-10T01:10:08;12.70;99.90
947;DHT22;460;48.734;9.152;2023-05-10T01:12:39;12.60;99.90
947;DHT22;460;48.734;9.152;2023-05-10T01:15:08;12.60;99.90
947;DHT22;460;48.734;9.152;2023-05-10T01:17:38;12.50;99.90
947;DHT22;460;48.734;9.152;2023-05-10T01:20:10;12.50;99.90
947;DHT22;460;48.734;9.152;2023-05-10T01:23:02;12.60;99.90
947;DHT22;460;48.734;9.152;2023-05-10T01:25:49;12.50;99.90
947;DHT22;460;48.734;9.152;2023-05-10T01:28:46;12.50;99.90
947;DHT22;460;48.734;9.152;2023-05-10T01:34:08;12.50;99.90
947;DHT22;460;48.734;9.152;2023-05-10T01:36:42;12.50;99.90
947;DHT22;460;48.734;9.152;2023-05-10T01:39:15;12.50;99.90
947;DHT22;460;48.734;9.152;2023-05-10T01:41:49;12.50;99.90
947;DHT22;460;48.734;9.152;2023-05-10T01:44:26;12.50;99.90
947;DHT22;460;48.734;9.152;2023-05-10T01:47:01;12.60;99.90
947;DHT22;460;48.734;9.152;2023-05-10T01:49:36;12.60;99.90
947;DHT22;460;48.734;9.152;2023-05-10T01:52:10;12.60;99.90
947;DHT22;460;48.734;9.152;2023-05-10T01:54:42;12.50;99.90
947;DHT22;460;48.734;9.152;2023-05-10T01:57:11;12.50;99.90
947;DHT22;460;48.734;9.152;2023-05-10T01:59:43;12.50;99.90
947;DHT22;460;48.734;9.152;2023-05-10T02:02:17;12.50;99.90
947;DHT22;460;48.734;9.152;2023-05-10T02:04:47;12.60;99.90
947;DHT22;460;48.734;9.152;2023-05-10T02:07:17;12.60;99.90
947;DHT22;460;48.734;9.152;2023-05-10T02:09:45;12.50;99.90
947;DHT22;460;48.734;9.152;2023-05-10T02:12:14;12.50;99.90
947;DHT22;460;48.734;9.152;2023-05-10T02:14:42;12.40;99.90
947;DHT22;460;48.734;9.152;2023-05-10T02:17:09;12.50;99.90
947;DHT22;460;48.734;9.152;2023-05-10T02:19:40;12.50;99.90
947;DHT22;460;48.734;9.152;2023-05-10T02:22:10;12.50;99.90
947;DHT22;460;48.734;9.152;2023-05-10T02:24:38;12.50;99.90
947;DHT22;460;48.734;9.152;2023-05-10T02:27:06;12.40;99.90
947;DHT22;460;48.734;9.152;2023-05-10T02:29:34;12.40;99.90
947;DHT22;460;48.734;9.152;2023-05-10T02:32:03;12.50;99.90
947;DHT22;460;48.734;9.152;2023-05-10T02:34:32;12.40;99.90
947;DHT22;460;48.734;9.152;2023-05-10T02:36:59;12.40;99.90
947;DHT22;460;48.734;9.152;2023-05-10T02:39:29;12.50;99.90
947;DHT22;460;48.734;9.152;2023-05-10T02:41:59;12.40;99.90
947;DHT22;460;48.734;9.152;2023-05-10T02:44:28;12.40;99.90
947;DHT22;460;48.734;9.152;2023-05-10T02:46:57;12.40;99.90
947;DHT22;460;48.734;9.152;2023-05-10T02:49:24;12.50;99.90
947;DHT22;460;48.734;9.152;2023-05-10T02:51:57;12.50;99.90
947;DHT22;460;48.734;9.152;2023-05-10T02:54:31;12.50;99.90
947;DHT22;460;48.734;9.152;2023-05-10T02:57:02;12.50;99.90
947;DHT22;460;48.734;9.152;2023-05-10T02:59:31;12.40;99.90
947;DHT22;460;48.734;9.152;2023-05-10T03:01:59;12.40;99.90
947;DHT22;460;48.734;9.152;2023-05-10T03:04:27;12.40;99.90
947;DHT22;460;48.734;9.152;2023-05-10T03:06:55;12.40;99.90
947;DHT22;460;48.734;9.152;2023-05-10T03:09:24;12.40;99.90
947;DHT22;460;48.734;9.152;2023-05-10T03:11:59;12.40;99.90
947;DHT22;460;48.734;9.152;2023-05-10T03:14:49;12.50;99.90
947;DHT22;460;48.734;9.152;2023-05-10T03:17:26;12.40;99.90
947;DHT22;460;48.734;9.152;2023-05-10T03:19:56;12.30;99.90
947;DHT22;460;48.734;9.152;2023-05-10T03:22:25;12.30;99.90
947;DHT22;460;48.734;9.152;2023-05-10T03:24:55;12.40;99.90
947;DHT22;460;48.734;9.152;2023-05-10T03:27:26;12.40;99.90
947;DHT22;460;48.734;9.152;2023-05-10T03:29:53;12.40;99.90
947;DHT22;460;48.734;9.152;2023-05-10T03:32:21;12.40;99.90
947;DHT22;460;48.734;9.152;2023-05-10T03:34:48;12.40;99.90
947;DHT22;460;48.734;9.152;2023-05-10T03:37:15;12.40;99.90
947;DHT22;460;48.734;9.152;2023-05-10T03:39:42;12.50;99.90
947;DHT22;460;48.734;9.152;2023-05-10T03:42:09;12.50;99.90
947;DHT22;460;48.734;9.152;2023-05-10T03:44:38;12.40;99.90
947;DHT22;460;48.734;9.152;2023-05-10T03:47:05;12.50;99.90
947;DHT22;460;48.734;9.152;2023-05-10T03:49:32;12.50;99.90
947;DHT22;460;48.734;9.152;2023-05-10T03:51:59;12.50;99.90
947;DHT22;460;48.734;9.152;2023-05-10T03:54:25;12.50;99.90
947;DHT22;460;48.734;9.152;2023-05-10T03:56:52;12.50;99.90
947;DHT22;460;48.734;9.152;2023-05-10T03:59:19;12.50;99.90
947;DHT22;460;48.734;9.152;2023-05-10T04:01:47;12.50;99.90
947;DHT22;460;48.734;9.152;2023-05-10T04:04:14;12.50;99.90
947;DHT22;460;48.734;9.152;2023-05-10T04:06:40;12.50;99.90
947;DHT22;460;48.734;9.152;2023-05-10T04:09:07;12.60;99.90
947;DHT22;460;48.734;9.152;2023-05-10T04:11:34;12.70;99.90
947;DHT22;460;48.734;9.152;2023-05-10T04:14:01;12.60;99.90
947;DHT22;460;48.734;9.152;2023-05-10T04:16:28;12.50;99.90
947;DHT22;460;48.734;9.152;2023-05-10T04:18:56;12.60;99.90
947;DHT22;460;48.734;9.152;2023-05-10T04:21:23;12.50;99.90
947;DHT22;460;48.734;9.152;2023-05-10T04:23:50;12.40;99.90
947;DHT22;460;48.734;9.152;2023-05-10T04:26:16;12.50;99.90
947;DHT22;460;48.734;9.152;2023-05-10T04:28:43;12.50;99.90
947;DHT22;460;48.734;9.152;2023-05-10T04:31:10;12.50;99.90
947;DHT22;460;48.734;9.152;2023-05-10T04:33:37;12.50;99.90
947;DHT22;460;48.734;9.152;2023-05-10T04:36:06;12.50;99.90
947;DHT22;460;48.734;9.152;2023-05-10T04:38:33;12.50;99.90
947;DHT22;460;48.734;9.152;2023-05-10T04:41:06;12.40;99.90
947;DHT22;460;48.734;9.152;2023-05-10T04:43:33;12.50;99.90
947;DHT22;460;48.734;9.152;2023-05-10T04:46:00;12.50;99.90
947;DHT22;460;48.734;9.152;2023-05-10T04:48:27;12.50;99.90
947;DHT22;460;48.734;9.152;2023-05-10T04:50:54;12.40;99.90
947;DHT22;460;48.734;9.152;2023-05-10T04:53:22;12.40;99.90
947;DHT22;460;48.734;9.152;2023-05-10T04:55:49;12.40;99.90
947;DHT22;460;48.734;9.152;2023-05-10T04:58:16;12.40;99.90
947;DHT22;460;48.734;9.152;2023-05-10T05:00:42;12.30;99.90
947;DHT22;460;48.734;9.152;2023-05-10T05:03:09;12.50;99.90
947;DHT22;460;48.734;9.152;2023-05-10T05:05:36;12.50;99.90
947;DHT22;460;48.734;9.152;2023-05-10T05:08:03;12.50;99.90
947;DHT22;460;48.734;9.152;2023-05-10T05:10:31;12.50;99.90
947;DHT22;460;48.734;9.152;2023-05-10T05:12:58;12.70;99.90
947;DHT22;460;48.734;9.152;2023-05-10T05:15:25;12.70;99.90
947;DHT22;460;48.734;9.152;2023-05-10T05:17:52;12.70;99.90
947;DHT22;460;48.734;9.152;2023-05-10T05:20:18;12.70;99.90
947;DHT22;460;48.734;9.152;2023-05-10T05:22:45;12.70;99.90
947;DHT22;460;48.734;9.152;2023-05-10T05:25:12;12.80;99.90
947;DHT22;460;48.734;9.152;2023-05-10T05:27:40;12.80;99.90
947;DHT22;460;48.734;9.152;2023-05-10T05:30:08;12.80;99.90
947;DHT22;460;48.734;9.152;2023-05-10T05:32:35;12.90;99.90
947;DHT22;460;48.734;9.152;2023-05-10T05:35:02;12.90;99.90
947;DHT22;460;48.734;9.152;2023-05-10T05:37:29;12.90;99.90
947;DHT22;460;48.734;9.152;2023-05-10T05:39:55;12.90;99.90
947;DHT22;460;48.734;9.152;2023-05-10T05:42:22;13.00;99.90
947;DHT22;460;48.734;9.152;2023-05-10T05:44:50;12.90;99.90
947;DHT22;460;48.734;9.152;2023-05-10T05:47:17;12.90;99.90
947;DHT22;460;48.734;9.152;2023-05-10T05:49:44;13.00;99.90
947;DHT22;460;48.734;9.152;2023-05-10T05:52:11;13.10;99.90
947;DHT22;460;48.734;9.152;2023-05-10T05:54:38;13.10;99.90
947;DHT22;460;48.734;9.152;2023-05-10T05:57:05;13.00;99.90
947;DHT22;460;48.734;9.152;2023-05-10T05:59:33;13.10;99.90
947;DHT22;460;48.734;9.152;2023-05-10T06:02:01;13.10;99.90
947;DHT22;460;48.734;9.152;2023-05-10T06:04:27;13.10;99.90
947;DHT22;460;48.734;9.152;2023-05-10T06:06:54;13.20;99.90
947;DHT22;460;48.734;9.152;2023-05-10T06:09:21;13.20;99.90
947;DHT22;460;48.734;9.152;2023-05-10T06:11:49;13.20;99.90
947;DHT22;460;48.734;9.152;2023-05-10T06:14:16;13.30;99.90
947;DHT22;460;48.734;9.152;2023-05-10T06:16:43;13.20;99.90
947;DHT22;460;48.734;9.152;2023-05-10T06:19:11;13.20;99.90
947;DHT22;460;48.734;9.152;2023-05-10T06:21:38;13.30;99.90
947;DHT22;460;48.734;9.152;2023-05-10T06:24:05;13.40;99.90
947;DHT22;460;48.734;9.152;2023-05-10T06:26:33;13.40;99.90
947;DHT22;460;48.734;9.152;2023-05-10T06:28:59;13.30;99.90
947;DHT22;460;48.734;9.152;2023-05-10T06:31:26;13.40;99.90
947;DHT22;460;48.734;9.152;2023-05-10T06:33:53;13.30;99.90
947;DHT22;460;48.734;9.152;2023-05-10T06:36:21;13.20;99.90
947;DHT22;460;48.734;9.152;2023-05-10T06:38:50;13.30;99.90
947;DHT22;460;48.734;9.152;2023-05-10T06:41:16;13.30;99.90
947;DHT22;460;48.734;9.152;2023-05-10T06:43:43;13.20;99.90
947;DHT22;460;48.734;9.152;2023-05-10T06:46:10;13.30;99.90
947;DHT22;460;48.734;9.152;2023-05-10T06:48:37;13.30;99.90
947;DHT22;460;48.734;9.152;2023-05-10T06:51:04;13.30;99.90
947;DHT22;460;48.734;9.152;2023-05-10T06:53:32;13.20;99.90
947;DHT22;460;48.734;9.152;2023-05-10T06:55:59;13.20;99.90
947;DHT22;460;48.734;9.152;2023-05-10T06:58:25;13.10;99.90
947;DHT22;460;48.734;9.152;2023-05-10T07:00:52;13.20;99.90
947;DHT22;460;48.734;9.152;2023-05-10T07:03:19;13.30;99.90
947;DHT22;460;48.734;9.152;2023-05-10T07:05:46;13.30;99.90
947;DHT22;460;48.734;9.152;2023-05-10T07:08:12;13.40;99.90
947;DHT22;460;48.734;9.152;2023-05-10T07:10:41;13.50;99.90
947;DHT22;460;48.734;9.152;2023-05-10T07:13:08;13.50;99.90
947;DHT22;460;48.734;9.152;2023-05-10T07:15:35;13.70;99.90
947;DHT22;460;48.734;9.152;2023-05-10T07:18:02;13.80;99.90
947;DHT22;460;48.734;9.152;2023-05-10T07:20:29;13.90;99.90
947;DHT22;460;48.734;9.152;2023-05-10T07:22:56;14.10;99.90
947;DHT22;460;48.734;9.152;2023-05-10T07:25:23;14.10;99.90
947;DHT22;460;48.734;9.152;2023-05-10T07:27:51;14.10;99.90
947;DHT22;460;48.734;9.152;2023-05-10T07:30:18;14.10;99.90
947;DHT22;460;48.734;9.152;2023-05-10T07:32:45;14.10;99.90
947;DHT22;460;48.734;9.152;2023-05-10T07:35:11;14.00;99.90
947;DHT22;460;48.734;9.152;2023-05-10T07:37:38;14.00;99.90
947;DHT22;460;48.734;9.152;2023-05-10T07:40:06;14.10;99.90
947;DHT22;460;48.734;9.152;2023-05-10T07:42:33;14.30;99.90
947;DHT22;460;48.734;9.152;2023-05-10T07:45:01;14.30;99.90
947;DHT22;460;48.734;9.152;2023-05-10T07:47:28;14.30;99.90
947;DHT22;460;48.734;9.152;2023-05-10T07:49:55;14.40;99.90
947;DHT22;460;48.734;9.152;2023-05-10T07:52:22;14.40;99.90
947;DHT22;460;48.734;9.152;2023-05-10T07:54:48;14.30;99.90
947;DHT22;460;48.734;9.152;2023-05-10T07:57:15;14.10;99.90
947;DHT22;460;48.734;9.152;2023-05-10T07:59:43;14.20;99.90
947;DHT22;460;48.734;9.152;2023-05-10T08:02:11;14.20;99.90
947;DHT22;460;48.734;9.152;2023-05-10T08:04:38;14.30;99.90
947;DHT22;460;48.734;9.152;2023-05-10T08:07:05;14.10;99.90
947;DHT22;460;48.734;9.152;2023-05-10T08:09:32;14.20;99.90
947;DHT22;460;48.734;9.152;2023-05-10T08:11:58;14.20;99.90
947;DHT22;460;48.734;9.152;2023-05-10T08:14:26;14.30;99.90
947;DHT22;460;48.734;9.152;2023-05-10T08:16:53;14.30;99.90
947;DHT22;460;48.734;9.152;2023-05-10T08:19:22;14.20;99.90
947;DHT22;460;48.734;9.152;2023-05-10T08:21:49;14.30;99.90
947;DHT22;460;48.734;9.152;2023-05-10T08:24:16;14.20;99.90
947;DHT22;460;48.734;9.152;2023-05-10T08:26:43;14.30;99.90
947;DHT22;460;48.734;9.152;2023-05-10T08:29:09;14.50;99.90
947;DHT22;460;48.734;9.152;2023-05-10T08:31:36;14.40;99.90
947;DHT22;460;48.734;9.152;2023-05-10T08:34:03;14.40;99.90
947;DHT22;460;48.734;9.152;2023-05-10T08:36:31;14.40;99.90
947;DHT22;460;48.734;9.152;2023-05-10T08:38:58;14.50;99.90
947;DHT22;460;48.734;9.152;2023-05-10T08:41:25;14.60;99.90
947;DHT22;460;48.734;9.152;2023-05-10T08:43:52;14.70;99.90
947;DHT22;460;48.734;9.152;2023-05-10T08:46:20;14.60;99.90
947;DHT22;460;48.734;9.152;2023-05-10T08:48:49;14.50;99.90
947;DHT22;460;48.734;9.152;2023-05-10T08:51:18;14.60;99.90
947;DHT22;460;48.734;9.152;2023-05-10T08:53:47;14.60;99.90
947;DHT22;460;48.734;9.152;2023-05-10T08:56:15;14.60;99.90
947;DHT22;460;48.734;9.152;2023-05-10T08:58:43;14.70;99.90
947;DHT22;460;48.734;9.152;2023-05-10T09:01:11;14.80;99.90
947;DHT22;460;48.734;9.152;2023-05-10T09:03:39;14.70;99.90
947;DHT22;460;48.734;9.152;2023-05-10T09:06:06;14.70;99.90
947;DHT22;460;48.734;9.152;2023-05-10T09:08:33;14.60;99.90
947;DHT22;460;48.734;9.152;2023-05-10T09:11:02;14.80;99.90
947;DHT22;460;48.734;9.152;2023-05-10T09:13:29;14.80;99.90
947;DHT22;460;48.734;9.152;2023-05-10T09:15:56;14.90;99.90
947;DHT22;460;48.734;9.152;2023-05-10T09:18:24;14.90;99.90
947;DHT22;460;48.734;9.152;2023-05-10T09:20:51;14.80;99.90
947;DHT22;460;48.734;9.152;2023-05-10T09:23:18;14.80;99.90
947;DHT22;460;48.734;9.152;2023-05-10T09:25:45;14.70;99.90
947;DHT22;460;48.734;9.152;2023-05-10T09:28:13;14.70;99.90
947;DHT22;460;48.734;9.152;2023-05-10T09:30:40;14.40;99.90
947;DHT22;460;48.734;9.152;2023-05-10T09:33:08;14.30;99.90
947;DHT22;460;48.734;9.152;2023-05-10T09:35:35;14.30;99.90
947;DHT22;460;48.734;9.152;2023-05-10T09:38:04;14.20;99.90
947;DHT22;460;48.734;9.152;2023-05-10T09:40:32;14.30;99.90
947;DHT22;460;48.734;9.152;2023-05-10T09:43:00;14.50;99.90
947;DHT22;460;48.734;9.152;2023-05-10T09:45:30;14.60;99.90
947;DHT22;460;48.734;9.152;2023-05-10T09:47:57;14.70;99.90
947;DHT22;460;48.734;9.152;2023-05-10T09:50:25;14.70;99.90
947;DHT22;460;48.734;9.152;2023-05-10T09:52:53;14.80;99.90
947;DHT22;460;48.734;9.152;2023-05-10T09:55:23;15.00;99.90
947;DHT22;460;48.734;9.152;2023-05-10T09:57:58;15.00;99.90
947;DHT22;460;48.734;9.152;2023-05-10T10:00:26;15.30;99.90
947;DHT22;460;48.734;9.152;2023-05-10T10:02:57;15.10;99.90
947;DHT22;460;48.734;9.152;2023-05-10T10:05:28;15.10;99.90
947;DHT22;460;48.734;9.152;2023-05-10T10:07:56;15.30;99.90
947;DHT22;460;48.734;9.152;2023-05-10T10:10:23;15.30;99.90
947;DHT22;460;48.734;9.152;2023-05-10T10:12:50;15.50;99.90
947;DHT22;460;48.734;9.152;2023-05-10T10:15:18;15.60;99.90
947;DHT22;460;48.734;9.152;2023-05-10T10:17:45;15.60;99.80
947;DHT22;460;48.734;9.152;2023-05-10T10:20:14;15.50;99.90
947;DHT22;460;48.734;9.152;2023-05-10T10:22:41;15.30;99.50
947;DHT22;460;48.734;9.152;2023-05-10T10:25:11;15.30;99.30
947;DHT22;460;48.734;9.152;2023-05-10T10:27:44;15.30;99.90
947;DHT22;460;48.734;9.152;2023-05-10T10:30:19;15.20;99.90
947;DHT22;460;48.734;9.152;2023-05-10T10:33:06;15.20;99.90
947;DHT22;460;48.734;9.152;2023-05-10T10:35:39;15.30;99.90
947;DHT22;460;48.734;9.152;2023-05-10T10:38:07;15.30;99.60
947;DHT22;460;48.734;9.152;2023-05-10T10:40:34;15.30;99.90
947;DHT22;460;48.734;9.152;2023-05-10T10:43:22;15.60;99.90
947;DHT22;460;48.734;9.152;2023-05-10T10:46:10;15.70;99.40
947;DHT22;460;48.734;9.152;2023-05-10T10:48:37;15.90;98.70
947;DHT22;460;48.734;9.152;2023-05-10T10:51:06;16.10;98.30
947;DHT22;460;48.734;9.152;2023-05-10T10:53:33;16.10;98.10
947;DHT22;460;48.734;9.152;2023-05-10T10:56:06;16.10;99.60
947;DHT22;460;48.734;9.152;2023-05-10T10:58:34;16.20;98.80
947;DHT22;460;48.734;9.152;2023-05-10T11:01:12;15.80;97.50
947;DHT22;460;48.734;9.152;2023-05-10T11:03:40;15.30;97.80
947;DHT22;460;48.734;9.152;2023-05-10T11:06:08;14.80;97.70
947;DHT22;460;48.734;9.152;2023-05-10T11:08:41;14.70;98.60
947;DHT22;460;48.734;9.152;2023-05-10T11:11:14;14.60;98.40
947;DHT22;460;48.734;9.152;2023-05-10T11:13:42;14.70;99.00
947;DHT22;460;48.734;9.152;2023-05-10T11:16:12;14.80;99.20
947;DHT22;460;48.734;9.152;2023-05-10T11:18:39;14.80;99.50
947;DHT22;460;48.734;9.152;2023-05-10T11:21:09;14.90;98.30
947;DHT22;460;48.734;9.152;2023-05-10T11:23:48;14.80;97.40
947;DHT22;460;48.734;9.152;2023-05-10T11:26:16;14.60;96.90
947;DHT22;460;48.734;9.152;2023-05-10T11:28:43;14.60;97.30
947;DHT22;460;48.734;9.152;2023-05-10T11:31:12;14.60;97.10
947;DHT22;460;48.734;9.152;2023-05-10T11:33:42;14.50;96.30
947;DHT22;460;48.734;9.152;2023-05-10T11:36:13;14.50;96.70
947;DHT22;460;48.734;9.152;2023-05-10T11:38:40;14.50;97.20
947;DHT22;460;48.734;9.152;2023-05-10T11:41:08;14.60;97.30
947;DHT22;460;48.734;9.152;2023-05-10T11:43:37;14.60;97.10
947;DHT22;460;48.734;9.152;2023-05-10T11:46:04;14.50;96.80
947;DHT22;460;48.734;9.152;2023-05-10T11:48:32;14.50;97.40
947;DHT22;460;48.734;9.152;2023-05-10T11:50:58;14.50;97.60
947;DHT22;460;48.734;9.152;2023-05-10T11:53:31;14.50;97.70
947;DHT22;460;48.734;9.152;2023-05-10T11:56:03;14.40;97.70
947;DHT22;460;48.734;9.152;2023-05-10T11:58:31;14.40;97.00
947;DHT22;460;48.734;9.152;2023-05-10T12:00:58;14.40;98.40
947;DHT22;460;48.734;9.152;2023-05-10T12:03:25;14.40;98.10
947;DHT22;460;48.734;9.152;2023-05-10T12:05:52;14.50;97.90
947;DHT22;460;48.734;9.152;2023-05-10T12:08:21;14.50;97.90
947;DHT22;460;48.734;9.152;2023-05-10T12:10:49;14.60;97.80
947;DHT22;460;48.734;9.152;2023-05-10T12:13:16;15.00;98.90
947;DHT22;460;48.734;9.152;2023-05-10T12:15:43;15.30;97.80
947;DHT22;460;48.734;9.152;2023-05-10T12:18:11;15.30;97.30
947;DHT22;460;48.734;9.152;2023-05-10T12:20:38;15.40;96.70
947;DHT22;460;48.734;9.152;2023-05-10T12:23:08;15.60;97.50
947;DHT22;460;48.734;9.152;2023-05-10T12:25:36;15.80;97.00
947;DHT22;460;48.734;9.152;2023-05-10T12:28:07;15.80;96.80
947;DHT22;460;48.734;9.152;2023-05-10T12:30:35;15.60;97.00
947;DHT22;460;48.734;9.152;2023-05-10T12:33:07;15.70;98.10
947;DHT22;460;48.734;9.152;2023-05-10T12:35:44;15.50;97.40
947;DHT22;460;48.734;9.152;2023-05-10T12:38:27;15.60;97.40
947;DHT22;460;48.734;9.152;2023-05-10T12:40:55;15.80;98.20
947;DHT22;460;48.734;9.152;2023-05-10T12:43:23;15.70;96.40
947;DHT22;460;48.734;9.152;2023-05-10T12:45:50;15.60;97.70
947;DHT22;460;48.734;9.152;2023-05-10T12:48:17;15.50;97.70
947;DHT22;460;48.734;9.152;2023-05-10T12:50:43;15.20;96.90
947;DHT22;460;48.734;9.152;2023-05-10T12:53:10;15.20;97.10
947;DHT22;460;48.734;9.152;2023-05-10T12:55:38;15.00;97.10
947;DHT22;460;48.734;9.152;2023-05-10T12:58:05;15.00;97.60
947;DHT22;460;48.734;9.152;2023-05-10T13:00:33;14.80;97.10
947;DHT22;460;48.734;9.152;2023-05-10T13:03:00;14.80;97.80
947;DHT22;460;48.734;9.152;2023-05-10T13:05:27;14.70;97.30
947;DHT22;460;48.734;9.152;2023-05-10T13:07:54;14.80;97.80
947;DHT22;460;48.734;9.152;2023-05-10T13:10:20;14.80;97.60
947;DHT22;460;48.734;9.152;2023-05-10T13:12:49;15.00;97.50
947;DHT22;460;48.734;9.152;2023-05-10T13:15:15;15.30;98.00
947;DHT22;460;48.734;9.152;2023-05-10T13:17:43;15.30;97.90
947;DHT22;460;48.734;9.152;2023-05-10T13:20:11;15.40;97.20
947;DHT22;460;48.734;9.152;2023-05-10T13:22:38;15.50;97.50
947;DHT22;460;48.734;9.152;2023-05-10T13:25:05;15.70;97.40
947;DHT22;460;48.734;9.152;2023-05-10T13:27:32;15.60;96.50
947;DHT22;460;48.734;9.152;2023-05-10T13:29:59;15.60;97.40
947;DHT22;460;48.734;9.152;2023-05-10T13:32:25;15.90;97.00
947;DHT22;460;48.734;9.152;2023-05-10T13:34:54;16.10;95.40
947;DHT22;460;48.734;9.152;2023-05-10T13:37:21;16.40;95.80
947;DHT22;460;48.734;9.152;2023-05-10T13:39:48;16.30;96.20
947;DHT22;460;48.734;9.152;2023-05-10T13:42:15;16.20;95.30
947;DHT22;460;48.734;9.152;2023-05-10T13:44:41;15.90;95.00
947;DHT22;460;48.734;9.152;2023-05-10T13:47:08;15.70;95.30
947;DHT22;460;48.734;9.152;2023-05-10T13:49:35;15.70;96.20
947;DHT22;460;48.734;9.152;2023-05-10T13:52:03;15.70;94.70
947;DHT22;460;48.734;9.152;2023-05-10T13:54:32;15.90;95.60
947;DHT22;460;48.734;9.152;2023-05-10T13:56:59;16.10;94.90
947;DHT22;460;48.734;9.152;2023-05-10T13:59:26;16.30;95.30
947;DHT22;460;48.734;9.152;2023-05-10T14:01:52;16.10;93.30
947;DHT22;460;48.734;9.152;2023-05-10T14:04:19;15.90;93.10
947;DHT22;460;48.734;9.152;2023-05-10T14:06:46;16.10;94.10
947;DHT22;460;48.734;9.152;2023-05-10T14:09:14;16.20;94.90
947;DHT22;460;48.734;9.152;2023-05-10T14:11:41;16.20;95.40
947;DHT22;460;48.734;9.152;2023-05-10T14:14:09;16.20;93.70
947;DHT22;460;48.734;9.152;2023-05-10T14:16:35;16.00;93.60
947;DHT22;460;48.734;9.152;2023-05-10T14:19:02;16.00;93.30
947;DHT22;460;48.734;9.152;2023-05-10T14:21:29;16.00;93.50
947;DHT22;460;48.734;9.152;2023-05-10T14:23:56;16.00;94.50
947;DHT22;460;48.734;9.152;2023-05-10T14:26:24;16.10;93.70
947;DHT22;460;48.734;9.152;2023-05-10T14:28:51;16.20;93.60
947;DHT22;460;48.734;9.152;2023-05-10T14:31:18;16.00;92.90
947;DHT22;460;48.734;9.152;2023-05-10T14:33:46;16.10;93.60
947;DHT22;460;48.734;9.152;2023-05-10T14:36:12;16.10;91.80
947;DHT22;460;48.734;9.152;2023-05-10T14:38:39;16.00;92.80
947;DHT22;460;48.734;9.152;2023-05-10T14:41:06;16.10;92.60
947;DHT22;460;48.734;9.152;2023-05-10T14:43:34;16.00;92.70
947;DHT22;460;48.734;9.152;2023-05-10T14:46:02;15.80;92.00
947;DHT22;460;48.734;9.152;2023-05-10T14:48:28;15.70;92.80
947;DHT22;460;48.734;9.152;2023-05-10T14:50:55;15.60;93.00
947;DHT22;460;48.734;9.152;2023-05-10T14:53:22;15.60;92.30
947;DHT22;460;48.734;9.152;2023-05-10T14:55:49;15.50;91.80
947;DHT22;460;48.734;9.152;2023-05-10T14:58:16;15.50;92.40
947;DHT22;460;48.734;9.152;2023-05-10T15:00:44;15.60;93.40
947;DHT22;460;48.734;9.152;2023-05-10T15:03:11;15.50;93.90
947;DHT22;460;48.734;9.152;2023-05-10T15:05:38;15.70;93.20
947;DHT22;460;48.734;9.152;2023-05-10T15:08:05;15.80;93.10
947;DHT22;460;48.734;9.152;2023-05-10T15:10:32;15.90;94.00
947;DHT22;460;48.734;9.152;2023-05-10T15:12:59;16.00;93.50
947;DHT22;460;48.734;9.152;2023-05-10T15:15:25;16.00;93.20
947;DHT22;460;48.734;9.152;2023-05-10T15:17:54;16.00;94.00
947;DHT22;460;48.734;9.152;2023-05-10T15:20:20;16.00;92.70
947;DHT22;460;48.734;9.152;2023-05-10T15:22:47;16.10;93.40
947;DHT22;460;48.734;9.152;2023-05-10T15:25:16;16.20;93.00
947;DHT22;460;48.734;9.152;2023-05-10T15:27:42;16.20;91.70
947;DHT22;460;48.734;9.152;2023-05-10T15:30:10;16.10;92.70
947;DHT22;460;48.734;9.152;2023-05-10T15:32:37;16.10;93.40
947;DHT22;460;48.734;9.152;2023-05-10T15:35:09;16.20;93.30
947;DHT22;460;48.734;9.152;2023-05-10T15:37:36;16.10;92.80
947;DHT22;460;48.734;9.152;2023-05-10T15:40:04;16.20;93.30
947;DHT22;460;48.734;9.152;2023-05-10T15:42:31;16.00;92.40
947;DHT22;460;48.734;9.152;2023-05-10T15:45:00;16.00;91.90
947;DHT22;460;48.734;9.152;2023-05-10T15:47:29;16.00;93.80
947;DHT22;460;48.734;9.152;2023-05-10T15:49:56;15.90;93.70
947;DHT22;460;48.734;9.152;2023-05-10T15:52:24;15.90;92.80
947;DHT22;460;48.734;9.152;2023-05-10T15:54:51;16.00;93.70
947;DHT22;460;48.734;9.152;2023-05-10T15:57:18;16.10;93.10
947;DHT22;460;48.734;9.152;2023-05-10T15:59:45;16.10;92.80
947;DHT22;460;48.734;9.152;2023-05-10T16:02:12;15.90;92.10
947;DHT22;460;48.734;9.152;2023-05-10T16:04:38;15.90;93.20
947;DHT22;460;48.734;9.152;2023-05-10T16:07:05;15.90;91.10
947;DHT22;460;48.734;9.152;2023-05-10T16:09:33;15.90;92.10
947;DHT22;460;48.734;9.152;2023-05-10T16:12:00;15.80;91.70
947;DHT22;460;48.734;9.152;2023-05-10T16:14:27;15.70;91.90
947;DHT22;460;48.734;9.152;2023-05-10T16:16:54;15.60;91.00
947;DHT22;460;48.734;9.152;2023-05-10T16:19:21;15.60;92.00
947;DHT22;460;48.734;9.152;2023-05-10T16:21:48;15.50;91.70
947;DHT22;460;48.734;9.152;2023-05-10T16:24:15;15.50;92.60
947;DHT22;460;48.734;9.152;2023-05-10T16:26:44;15.60;93.10
947;DHT22;460;48.734;9.152;2023-05-10T16:29:11;15.50;92.60
947;DHT22;460;48.734;9.152;2023-05-10T16:31:38;15.50;91.40
947;DHT22;460;48.734;9.152;2023-05-10T16:34:05;15.30;90.50
947;DHT22;460;48.734;9.152;2023-05-10T16:36:31;15.30;92.40
947;DHT22;460;48.734;9.152;2023-05-10T16:38:58;15.30;91.60
947;DHT22;460;48.734;9.152;2023-05-10T16:41:25;15.30;92.10
947;DHT22;460;48.734;9.152;2023-05-10T16:43:53;15.20;92.10